Time;durP1;ratioP1;P1;durP2;ratioP2;P2;SDS_P1;SDS_P2;PMS_P1;PMS_P2;Temp;Humidity;BMP_temperature;BMP_pressure;BME280_temperature;BME280_humidity;BME280_pressure;Samples;Min_cycle;Max_cycle;Signal;HPM_P1;HPM_P2
2023/05/26 00:01:07;;;;;;;7.63;4.10;;;12.60;99.90;;;12.25;100.00;97864.50;5026482;28;20693;-37
2023/05/26 00:03:34;;;;;;;6.25;3.95;;;12.60;99.90;;;12.25;100.00;97869.78;5024996;28;20036;-37
2023/05/26 00:06:00;;;;;;;5.72;3.92;;;12.60;99.90;;;12.22;100.00;97870.75;5028202;28;20048;-37
2023/05/26 00:08:26;;;;;;;9.00;4.60;;;12.60;99.90;;;12.18;100.00;97876.19;5027587;28;20131;-38
2023/05/26 00:10:52;;;;;;;7.85;4.10;;;12.50;99.90;;;12.14;100.00;97870.16;5030450;28;20052;-37
2023/05/26 00:13:18;;;;;;;8.52;4.00;;;12.50;99.90;;;12.13;100.00;97876.38;5024717;28;20749;-37
2023/05/26 00:15:43;;;;;;;6.20;3.72;;;12.50;99.90;;;12.14;100.00;97877.25;5023012;28;20289;-36
2023/05/26 00:18:09;;;;;;;6.13;3.78;;;12.40;99.90;;;12.10;100.00;97867.69;5028892;28;20036;-36
2023/05/26 00:20:35;;;;;;;5.13;3.38;;;12.50;99.90;;;12.09;100.00;97876.53;5021782;28;20035;-38
2023/05/26 00:23:01;;;;;;;7.60;4.20;;;12.40;99.90;;;11.99;100.00;97863.66;5019186;28;20051;-36
2023/05/26 00:25:27;;;;;;;5.65;3.88;;;12.40;99.90;;;12.05;100.00;97870.50;5014778;28;20060;-38
2023/05/26 00:27:53;;;;;;;6.85;3.85;;;12.40;99.90;;;12.00;100.00;97877.72;5024370;28;20029;-37
2023/05/26 00:30:19;;;;;;;6.40;4.07;;;12.40;99.90;;;11.99;100.00;97876.88;5025198;28;20037;-36
2023/05/26 00:32:44;;;;;;;6.90;4.03;;;12.40;99.90;;;11.98;100.00;97869.84;5020104;28;20043;-37
2023/05/26 00:35:10;;;;;;;5.82;3.75;;;12.30;99.90;;;11.97;100.00;97870.78;5019690;28;20028;-39
2023/05/26 00:37:36;;;;;;;8.77;4.47;;;12.30;99.90;;;11.97;100.00;97873.41;5021388;28;20047;-37
2023/05/26 00:40:02;;;;;;;6.22;3.88;;;12.30;99.90;;;11.85;100.00;97856.16;5027190;28;20520;-38
2023/05/26 00:42:27;;;;;;;7.97;4.15;;;12.40;99.90;;;11.94;100.00;97856.81;5022371;28;20108;-38
2023/05/26 00:44:53;;;;;;;8.40;4.60;;;12.40;99.90;;;12.05;100.00;97873.13;5022980;28;20134;-39
2023/05/26 00:47:19;;;;;;;6.57;4.15;;;12.40;99.90;;;12.05;100.00;97867.84;5019212;28;20025;-37
2023/05/26 00:49:45;;;;;;;5.25;3.63;;;12.50;99.90;;;12.14;100.00;97878.09;5022843;28;20059;-38
2023/05/26 00:52:11;;;;;;;13.48;4.43;;;12.50;99.90;;;12.20;100.00;97880.53;5027814;28;20033;-37
2023/05/26 00:54:39;;;;;;;6.85;4.35;;;12.50;99.90;;;12.26;100.00;97875.91;5027142;28;20447;-37
2023/05/26 00:57:06;;;;;;;7.30;4.03;;;12.60;99.90;;;12.32;100.00;97876.56;5025207;28;20033;-37
2023/05/26 00:59:32;;;;;;;6.43;3.85;;;12.70;99.90;;;12.38;100.00;97876.38;5027689;28;20083;-38
2023/05/26 01:01:59;;;;;;;8.15;3.63;;;12.70;99.90;;;12.44;100.00;97879.72;5025507;28;20907;-38
2023/05/26 01:04:25;;;;;;;6.57;3.83;;;12.80;99.90;;;12.49;100.00;97880.38;5027731;28;20038;-37
2023/05/26 01:07:05;;;;;;;6.95;4.15;;;12.80;99.90;;;12.55;100.00;97877.53;5024777;28;20033;-37
2023/05/26 01:09:31;;;;;;;6.43;3.90;;;12.90;99.90;;;12.55;100.00;97867.78;5032618;28;20049;-37
2023/05/26 01:12:05;;;;;;;8.98;3.90;;;12.90;99.90;;;12.56;100.00;97858.06;5025347;28;20041;-37
2023/05/26 01:14:41;;;;;;;9.20;4.13;;;12.90;99.90;;;12.66;100.00;97871.81;5022776;28;20029;-37
2023/05/26 01:17:20;;;;;;;5.65;3.80;;;13.00;99.90;;;12.65;100.00;97864.78;5022522;28;20075;-37
2023/05/26 01:20:08;;;;;;;7.95;4.18;;;13.00;99.90;;;12.66;100.00;97870.03;5024503;28;20028;-38
2023/05/26 01:23:13;;;;;;;7.43;4.00;;;13.00;99.90;;;12.67;100.00;97869.13;5029141;28;20037;-37
2023/05/26 01:26:31;;;;;;;6.38;3.88;;;13.00;99.90;;;12.64;100.00;97871.03;5012865;28;20040;-37
2023/05/26 01:29:08;;;;;;;7.10;4.07;;;13.00;99.90;;;12.63;100.00;97871.94;5004971;28;20049;-38
2023/05/26 01:31:35;;;;;;;7.68;4.10;;;13.00;99.90;;;12.61;100.00;97871.97;5036630;28;20041;-38
2023/05/26 01:34:01;;;;;;;6.13;4.00;;;12.90;99.90;;;12.60;100.00;97870.28;5020441;28;20036;-38
2023/05/26 01:36:29;;;;;;;7.90;4.70;;;12.90;99.90;;;12.51;100.00;97854.75;5025007;28;20485;-38
2023/05/26 01:38:55;;;;;;;7.10;3.85;;;12.90;99.90;;;12.57;100.00;97870.38;5026243;28;20068;-37
2023/05/26 01:41:53;;;;;;;7.50;4.20;;;12.90;99.90;;;12.53;100.00;97863.50;5026684;28;20080;-38
2023/05/26 01:44:30;;;;;;;5.57;3.63;;;12.90;99.90;;;12.58;100.00;97872.13;5047827;28;20053;-37
2023/05/26 01:46:55;;;;;;;7.05;4.45;;;12.90;99.90;;;12.57;100.00;97871.22;5021878;28;20055;-37
2023/05/26 01:49:27;;;;;;;6.20;3.95;;;12.90;99.90;;;12.58;100.00;97869.47;5027506;28;20647;-38
2023/05/26 01:51:59;;;;;;;7.55;4.30;;;12.90;99.90;;;12.58;100.00;97869.47;5016370;28;20048;-38
2023/05/26 01:54:28;;;;;;;9.18;4.20;;;12.90;99.90;;;12.57;100.00;97865.94;5019142;28;20044;-38
2023/05/26 01:56:55;;;;;;;6.50;3.88;;;12.90;99.90;;;12.58;100.00;97872.97;5022171;28;20593;-39
2023/05/26 01:59:22;;;;;;;5.90;3.97;;;12.90;99.90;;;12.55;100.00;97873.06;5021695;28;20107;-37
2023/05/26 02:01:48;;;;;;;7.95;4.20;;;12.90;99.90;;;12.53;100.00;97867.00;5040119;22;20053;-36
2023/05/26 02:04:13;;;;;;;7.70;4.35;;;12.90;99.90;;;12.51;100.00;97873.28;5031628;28;20106;-36
2023/05/26 02:06:39;;;;;;;7.15;4.32;;;12.90;99.90;;;12.53;100.00;97869.63;5034366;28;20393;-36
2023/05/26 02:09:06;;;;;;;8.50;4.03;;;12.80;99.90;;;12.54;100.00;97870.50;5015786;28;20055;-36
2023/05/26 02:11:32;;;;;;;9.65;4.45;;;12.80;99.90;;;12.52;100.00;97867.03;5013492;28;20024;-36
2023/05/26 02:13:58;;;;;;;8.88;3.85;;;12.80;99.90;;;12.51;100.00;97870.63;5018524;28;20028;-36
2023/05/26 02:16:26;;;;;;;10.43;4.30;;;12.80;99.90;;;12.48;100.00;97874.22;5017942;28;20580;-36
2023/05/26 02:18:52;;;;;;;7.15;4.18;;;12.80;99.90;;;12.39;100.00;97858.69;5020405;28;20037;-36
2023/05/26 02:21:18;;;;;;;7.35;3.83;;;12.80;99.90;;;12.48;100.00;97870.72;5022620;28;20646;-36
2023/05/26 02:23:45;;;;;;;9.93;4.35;;;12.80;99.90;;;12.48;100.00;97868.09;5018534;28;20168;-36
2023/05/26 02:26:10;;;;;;;6.78;3.90;;;12.80;99.90;;;12.44;100.00;97877.91;5015004;28;20293;-36
2023/05/26 02:28:38;;;;;;;6.80;4.07;;;12.80;99.90;;;12.41;100.00;97870.94;5019638;28;20034;-36
2023/05/26 02:31:04;;;;;;;6.07;4.20;;;12.70;99.90;;;12.39;100.00;97871.94;5015887;28;20037;-36
2023/05/26 02:33:30;;;;;;;8.43;4.32;;;12.70;99.90;;;12.37;100.00;97873.78;5018851;28;20035;-36
2023/05/26 02:35:56;;;;;;;7.72;4.68;;;12.70;99.90;;;12.34;100.00;97877.38;5017472;28;20403;-36
2023/05/26 02:38:22;;;;;;;7.60;4.32;;;12.70;99.90;;;12.34;100.00;97877.38;5018106;28;20024;-36
2023/05/26 02:40:49;;;;;;;6.47;3.90;;;12.70;99.90;;;12.34;100.00;97874.72;5005098;28;20037;-36
2023/05/26 02:43:16;;;;;;;6.30;3.85;;;12.60;99.90;;;12.33;100.00;97864.22;5029874;28;20560;-36
2023/05/26 02:45:42;;;;;;;7.13;4.30;;;12.60;99.90;;;12.31;100.00;97874.84;5007705;28;20384;-36
2023/05/26 02:48:08;;;;;;;8.93;4.32;;;12.60;99.90;;;12.29;100.00;97875.81;5018338;28;20037;-36
2023/05/26 02:50:33;;;;;;;5.65;3.78;;;12.60;99.90;;;12.22;100.00;97864.59;5015590;28;20087;-36
2023/05/26 02:52:59;;;;;;;5.15;3.78;;;12.60;99.90;;;12.27;100.00;97877.66;5026653;28;20390;-36
2023/05/26 02:55:25;;;;;;;5.22;3.35;;;12.60;99.90;;;12.27;100.00;97873.22;5025386;28;20035;-36
2023/05/26 02:57:51;;;;;;;7.93;3.83;;;12.60;99.90;;;12.26;100.00;97874.16;5029942;28;20706;-36
2023/05/26 03:00:18;;;;;;;8.27;3.88;;;12.60;99.90;;;12.26;100.00;97879.44;5027188;28;20028;-36
2023/05/26 03:02:44;;;;;;;7.60;4.22;;;12.50;99.90;;;12.22;100.00;97877.81;5016954;28;20091;-36
2023/05/26 03:05:10;;;;;;;9.57;4.70;;;12.60;99.90;;;12.10;100.00;97851.84;5030602;28;20495;-36
2023/05/26 03:07:36;;;;;;;7.47;4.47;;;12.50;99.90;;;12.13;100.00;97871.09;5030516;28;20029;-36
2023/05/26 03:10:02;;;;;;;6.00;3.70;;;12.50;99.90;;;12.10;100.00;97868.56;5027106;28;20095;-36
2023/05/26 03:12:27;;;;;;;6.63;4.10;;;12.40;99.90;;;12.04;100.00;97874.03;5030666;28;20123;-36
2023/05/26 03:14:54;;;;;;;8.85;4.43;;;12.40;99.90;;;11.96;100.00;97865.53;5027147;28;20040;-36
2023/05/26 03:17:20;;;;;;;5.68;3.85;;;12.30;99.90;;;11.81;100.00;97849.25;5028241;28;20111;-36
2023/05/26 03:19:46;;;;;;;8.38;4.25;;;12.30;99.90;;;11.83;100.00;97862.44;5026710;28;20449;-36
2023/05/26 03:22:12;;;;;;;6.55;4.13;;;12.20;99.90;;;11.72;100.00;97853.97;5020559;28;20366;-36
2023/05/26 03:24:38;;;;;;;7.88;4.20;;;12.10;99.90;;;11.65;100.00;97851.56;5024713;28;20201;-36
2023/05/26 03:27:06;;;;;;;6.35;4.20;;;12.00;99.90;;;11.57;100.00;97856.22;5021484;28;20043;-36
2023/05/26 03:29:33;;;;;;;7.30;4.55;;;11.90;99.90;;;11.46;100.00;97851.31;5024480;28;20198;-36
2023/05/26 03:31:59;;;;;;;6.88;4.00;;;11.80;99.90;;;11.43;100.00;97863.75;5015258;28;20701;-36
2023/05/26 03:34:25;;;;;;;7.22;4.28;;;11.80;99.90;;;11.35;100.00;97865.78;5022575;28;20071;-36
2023/05/26 03:36:52;;;;;;;7.65;4.70;;;11.70;99.90;;;11.31;100.00;97865.03;5023839;28;20025;-36
2023/05/26 03:39:19;;;;;;;8.40;4.18;;;11.70;99.90;;;11.21;100.00;97856.53;5024338;28;20112;-36
2023/05/26 03:41:45;;;;;;;5.07;4.30;;;11.60;99.90;;;11.20;100.00;97870.66;5019199;28;20039;-36
2023/05/26 03:44:10;;;;;;;7.25;4.30;;;11.60;99.90;;;11.18;100.00;97864.56;5023199;28;20033;-36
2023/05/26 03:46:36;;;;;;;7.20;4.85;;;11.50;99.90;;;11.05;100.00;97850.91;5023256;28;20039;-36
2023/05/26 03:49:02;;;;;;;9.70;5.00;;;11.50;99.90;;;11.05;100.00;97850.03;5019289;28;20752;-36
2023/05/26 03:51:28;;;;;;;9.48;4.85;;;11.50;99.90;;;11.18;100.00;97863.69;5023132;28;20029;-36
2023/05/26 03:53:53;;;;;;;6.22;4.25;;;11.50;99.90;;;11.26;100.00;97867.81;5037242;28;20471;-37
2023/05/26 03:56:19;;;;;;;7.38;4.38;;;11.60;99.90;;;11.35;100.00;97871.06;5022400;28;20668;-36
2023/05/26 03:58:45;;;;;;;11.23;4.70;;;11.70;99.90;;;11.42;100.00;97868.19;5020334;28;20024;-36
2023/05/26 04:01:10;;;;;;;7.88;4.60;;;11.80;99.90;;;11.51;100.00;97861.72;5016811;28;20124;-36
2023/05/26 04:03:36;;;;;;;10.50;4.68;;;11.90;99.90;;;11.60;100.00;97866.72;5013076;28;20147;-36
2023/05/26 04:06:02;;;;;;;7.22;4.50;;;11.90;99.90;;;11.68;100.00;97871.72;5006739;28;20560;-36
2023/05/26 04:08:28;;;;;;;8.52;4.60;;;12.00;99.90;;;11.75;100.00;97864.47;5021403;28;20037;-36
2023/05/26 04:10:54;;;;;;;8.52;4.75;;;12.10;99.90;;;11.79;100.00;97868.72;5006600;28;20063;-36
2023/05/26 04:13:21;;;;;;;7.90;4.82;;;12.20;99.90;;;11.85;100.00;97868.53;5030001;28;20057;-36
2023/05/26 04:15:46;;;;;;;9.80;4.70;;;12.20;99.90;;;11.89;100.00;97879.84;5029224;28;20744;-36
2023/05/26 04:18:12;;;;;;;10.82;4.93;;;12.20;99.90;;;11.72;100.00;97840.78;5024870;28;20276;-36
2023/05/26 04:20:38;;;;;;;6.63;4.88;;;12.30;99.90;;;12.03;100.00;97875.81;5028626;28;20497;-36
2023/05/26 04:23:04;;;;;;;10.02;4.80;;;12.40;99.90;;;12.07;100.00;97875.72;5015681;28;20320;-36
2023/05/26 04:25:30;;;;;;;8.23;4.63;;;12.40;99.90;;;12.15;100.00;97873.66;5024565;28;20017;-36
2023/05/26 04:27:58;;;;;;;8.15;4.80;;;12.50;99.90;;;12.18;100.00;97873.56;5026443;28;20032;-36
2023/05/26 04:30:24;;;;;;;7.72;5.07;;;12.50;99.90;;;12.22;100.00;97880.44;5028098;28;20130;-36
2023/05/26 04:32:50;;;;;;;9.82;5.43;;;12.50;99.90;;;12.26;100.00;97884.75;5023556;28;20036;-36
2023/05/26 04:35:17;;;;;;;10.52;5.15;;;12.60;99.90;;;12.31;100.00;97881.91;5028532;28;21000;-36
2023/05/26 04:37:43;;;;;;;8.57;4.82;;;12.60;99.90;;;12.37;100.00;97885.19;5014585;28;20311;-36
2023/05/26 04:40:09;;;;;;;8.68;4.63;;;12.70;99.90;;;12.44;100.00;97879.72;5012719;28;20028;-36
2023/05/26 04:42:36;;;;;;;7.93;4.35;;;12.70;99.90;;;12.50;100.00;97882.13;5024399;28;20726;-36
2023/05/26 04:45:04;;;;;;;7.40;4.45;;;12.80;99.90;;;12.56;100.00;97889.81;5026215;28;20123;-36
2023/05/26 04:47:32;;;;;;;6.72;4.38;;;12.80;99.90;;;12.60;100.00;97892.28;5027197;28;20044;-36
2023/05/26 04:49:59;;;;;;;10.25;4.78;;;12.80;99.90;;;12.68;100.00;97885.84;5017088;28;20259;-36
2023/05/26 04:52:26;;;;;;;8.05;4.88;;;13.00;99.90;;;12.76;100.00;97894.38;5021900;28;21147;-36
2023/05/26 04:54:51;;;;;;;7.88;4.85;;;13.00;99.90;;;12.86;100.00;97889.59;5019106;28;20062;-36
2023/05/26 04:57:18;;;;;;;6.70;5.10;;;13.10;99.90;;;12.89;100.00;97882.38;5008635;28;20261;-36
2023/05/26 04:59:44;;;;;;;13.25;6.05;;;13.20;99.90;;;12.94;100.00;97888.38;5017082;28;20033;-36
2023/05/26 05:02:10;;;;;;;6.93;5.13;;;13.20;99.90;;;12.97;100.00;97879.44;5019520;28;20032;-36
2023/05/26 05:04:36;;;;;;;9.35;4.93;;;13.20;99.90;;;13.00;100.00;97876.69;5024371;28;20033;-36
2023/05/26 05:07:02;;;;;;;10.55;5.03;;;13.30;99.90;;;12.97;100.00;97871.50;5019124;28;20658;-36
2023/05/26 05:09:27;;;;;;;7.50;4.45;;;13.30;99.90;;;13.01;100.00;97881.06;5025223;28;20033;-36
2023/05/26 05:11:53;;;;;;;10.57;4.95;;;13.20;99.90;;;12.98;100.00;97889.97;5018446;28;20113;-36
2023/05/26 05:14:19;;;;;;;9.48;5.95;;;13.20;99.90;;;12.94;100.00;97888.38;5026380;28;20659;-36
2023/05/26 05:16:46;;;;;;;8.80;4.93;;;13.20;99.90;;;12.92;100.00;97891.97;5023958;28;20032;-36
2023/05/26 05:19:12;;;;;;;7.78;4.70;;;13.20;99.90;;;12.96;100.00;97894.47;5028297;28;20106;-36
2023/05/26 05:21:37;;;;;;;8.85;5.35;;;13.30;99.90;;;13.00;100.00;97892.56;5024683;28;20386;-36
2023/05/26 05:24:03;;;;;;;6.53;4.30;;;13.20;99.90;;;12.88;100.00;97863.91;5029650;28;20120;-36
2023/05/26 05:26:29;;;;;;;5.25;4.22;;;13.30;99.90;;;13.11;100.00;97886.84;5033180;28;20039;-36
2023/05/26 05:28:55;;;;;;;9.88;5.22;;;13.30;99.90;;;13.18;100.00;97898.94;5019858;28;20034;-36
2023/05/26 05:31:21;;;;;;;8.40;5.18;;;13.40;99.90;;;13.22;100.00;97895.22;5028521;28;20095;-36
2023/05/26 05:33:46;;;;;;;7.63;5.05;;;13.50;99.90;;;13.28;100.00;97904.72;5027621;28;20036;-36
2023/05/26 05:36:12;;;;;;;8.80;4.68;;;13.50;99.90;;;13.36;100.00;97910.59;5024231;28;20043;-36
2023/05/26 05:38:38;;;;;;;9.52;5.35;;;13.60;99.90;;;13.42;100.00;97904.19;5018796;28;20657;-36
2023/05/26 05:41:03;;;;;;;10.82;5.47;;;13.70;99.90;;;13.53;100.00;97917.88;5029871;28;20029;-36
2023/05/26 05:43:29;;;;;;;11.75;5.43;;;13.70;99.90;;;13.66;100.00;97920.91;5036165;28;20392;-37
2023/05/26 05:45:55;;;;;;;8.50;4.80;;;13.90;99.90;;;13.75;100.00;97915.22;5026347;28;20048;-36
2023/05/26 05:48:20;;;;;;;8.60;4.97;;;13.90;99.90;;;13.84;100.00;97919.28;5031425;28;20485;-36
2023/05/26 05:50:46;;;;;;;10.77;4.95;;;14.00;99.90;;;13.84;100.00;97917.47;5022392;28;20128;-36
2023/05/26 05:53:12;;;;;;;7.28;4.70;;;14.10;99.90;;;13.92;100.00;97911.84;5031337;28;20045;-36
2023/05/26 05:55:38;;;;;;;10.63;5.68;;;14.20;99.90;;;14.00;100.00;97916.81;5026201;28;20520;-36
2023/05/26 05:58:04;;;;;;;9.90;5.40;;;14.20;99.90;;;14.11;100.00;97918.09;5014136;28;20412;-36
2023/05/26 06:00:30;;;;;;;8.88;4.80;;;14.30;99.90;;;14.20;100.00;97929.25;5027561;28;20680;-36
2023/05/26 06:02:56;;;;;;;9.60;5.18;;;14.40;99.90;;;14.33;100.00;97925.13;5019930;28;20505;-36
2023/05/26 06:05:22;;;;;;;7.95;4.75;;;14.50;99.90;;;14.45;100.00;97923.72;5027520;28;20091;-36
2023/05/26 06:07:47;;;;;;;6.90;4.68;;;14.60;99.90;;;14.58;100.00;97930.25;5052125;22;20520;-37
2023/05/26 06:10:13;;;;;;;10.77;5.57;;;14.80;99.90;;;14.70;100.00;97935.00;5046805;28;20028;-37
2023/05/26 06:12:39;;;;;;;13.23;5.07;;;14.80;99.90;;;14.87;100.00;97922.75;5048007;28;20029;-37
2023/05/26 06:15:05;;;;;;;9.73;5.63;;;15.00;99.90;;;14.96;100.00;97927.63;5043317;28;20048;-37
2023/05/26 06:17:31;;;;;;;9.68;5.50;;;15.10;99.90;;;15.05;99.64;97935.16;5045678;28;20033;-37
2023/05/26 06:19:56;;;;;;;10.25;5.82;;;15.20;99.90;;;15.17;97.64;97933.75;5037415;28;20431;-37
2023/05/26 06:22:22;;;;;;;8.48;4.75;;;15.30;99.90;;;15.24;96.86;97923.69;5046806;28;20021;-37
2023/05/26 06:24:48;;;;;;;8.68;5.00;;;15.50;99.90;;;15.49;93.16;97941.09;5041196;28;20417;-37
2023/05/26 06:27:13;;;;;;;11.13;5.20;;;15.60;99.90;;;15.64;91.69;97933.25;5044785;28;20377;-36
2023/05/26 06:29:39;;;;;;;9.93;5.82;;;15.70;99.90;;;15.76;88.86;97942.47;5049521;28;20081;-36
2023/05/26 06:32:05;;;;;;;11.55;4.85;;;15.80;99.90;;;15.89;88.27;97934.75;5045486;28;20028;-36
2023/05/26 06:34:30;;;;;;;8.35;5.13;;;15.90;99.90;;;16.05;87.74;97939.31;5045116;28;20120;-36
2023/05/26 06:36:56;;;;;;;7.65;4.80;;;16.00;99.90;;;16.18;87.90;97943.03;5045628;28;20040;-36
2023/05/26 06:39:24;;;;;;;11.38;5.75;;;16.20;99.90;;;16.30;82.60;97947.75;5048612;28;20051;-36
2023/05/26 06:41:50;;;;;;;11.73;5.85;;;16.30;99.90;;;16.37;79.74;97940.31;5045552;28;20028;-36
2023/05/26 06:44:16;;;;;;;11.48;5.80;;;16.40;99.90;;;16.48;78.40;97943.28;5040246;28;20149;-36
2023/05/26 06:46:41;;;;;;;10.07;5.80;;;16.50;99.90;;;16.46;77.46;97934.50;5030185;28;20043;-36
2023/05/26 06:49:07;;;;;;;12.75;5.57;;;16.60;99.90;;;16.63;79.82;97938.94;5039076;28;20036;-36
2023/05/26 06:51:32;;;;;;;9.20;5.22;;;16.70;99.90;;;16.64;77.52;97945.13;5045585;28;20028;-36
2023/05/26 06:53:58;;;;;;;13.55;5.43;;;16.70;99.90;;;16.66;77.39;97949.44;5042496;28;20079;-36
2023/05/26 06:56:26;;;;;;;13.40;5.95;;;16.70;99.90;;;16.59;74.24;97943.56;5043526;28;20239;-36
2023/05/26 07:02:32;;;;;;;11.95;4.85;;;16.80;99.90;;;16.81;79.84;97947.75;5055822;28;20043;-38
2023/05/26 07:04:58;;;;;;;8.20;4.90;;;16.80;99.90;;;16.82;80.25;97949.47;5050085;28;20028;-38
2023/05/26 07:07:23;;;;;;;12.18;5.22;;;16.90;99.90;;;16.91;75.97;97943.69;5048766;28;20519;-38
2023/05/26 07:09:49;;;;;;;9.10;5.78;;;16.90;99.90;;;17.06;78.83;97938.47;5044395;28;20056;-37
2023/05/26 07:12:15;;;;;;;11.52;5.20;;;17.10;99.90;;;17.31;73.28;97943.31;5043364;28;20525;-38
2023/05/26 07:14:40;;;;;;;9.60;5.70;;;17.20;99.90;;;17.46;70.88;97941.56;5051238;28;20135;-38
2023/05/26 07:17:06;;;;;;;8.25;5.50;;;17.40;99.90;;;17.61;69.61;97945.22;5041650;28;20044;-38
2023/05/26 07:19:32;;;;;;;10.40;6.07;;;17.50;99.90;;;17.66;68.03;97944.00;5041375;28;20032;-38
2023/05/26 07:21:59;;;;;;;13.80;5.82;;;17.70;99.90;;;17.71;65.38;97947.25;5039302;28;20661;-37
2023/05/26 07:24:25;;;;;;;10.20;5.97;;;17.60;99.90;;;17.72;66.58;97951.63;5049885;28;20520;-38
2023/05/26 07:26:50;;;;;;;13.23;6.20;;;17.70;99.90;;;17.64;62.91;97948.56;5047521;28;20576;-38
2023/05/26 07:29:16;;;;;;;8.77;5.30;;;17.60;99.90;;;17.62;66.35;97950.47;5050841;28;20032;-37
2023/05/26 07:31:42;;;;;;;12.13;6.07;;;17.60;99.90;;;17.59;63.53;97952.44;5045083;28;20024;-37
2023/05/26 07:34:07;;;;;;;12.35;5.43;;;17.60;99.90;;;17.62;64.92;97955.78;5046624;28;20120;-37
2023/05/26 07:36:34;;;;;;;9.70;5.15;;;17.60;99.90;;;17.61;64.11;97950.53;5051838;28;20081;-37
2023/05/26 07:39:00;;;;;;;11.27;5.60;;;17.60;99.90;;;17.47;63.74;97953.97;5048368;28;20036;-37
2023/05/26 07:41:26;;;;;;;13.80;5.85;;;17.60;99.90;;;17.47;63.77;97949.50;5046677;28;20031;-38
2023/05/26 07:43:51;;;;;;;12.32;6.68;;;17.60;99.90;;;17.38;65.82;97950.00;5048954;28;20036;-38
2023/05/26 07:46:17;;;;;;;13.50;5.75;;;17.60;99.90;;;17.36;66.07;97943.91;5043057;28;23114;-38
2023/05/26 07:48:43;;;;;;;10.75;6.05;;;17.50;99.90;;;17.47;71.30;97948.63;5046174;28;20040;-38
2023/05/26 07:51:08;;;;;;;8.68;5.95;;;17.50;99.90;;;17.55;67.75;97952.59;5045765;28;20143;-38
2023/05/26 07:53:35;;;;;;;8.95;5.13;;;17.70;99.90;;;17.70;67.46;97955.34;5043987;28;21425;-38
2023/05/26 07:56:01;;;;;;;12.43;6.05;;;17.80;99.90;;;17.74;65.70;97943.53;5047087;28;20074;-38
2023/05/26 07:58:26;;;;;;;8.80;4.72;;;17.90;99.90;;;17.87;64.53;97954.41;5042484;28;20384;-37
2023/05/26 08:00:52;;;;;;;8.90;5.28;;;17.90;99.90;;;17.91;65.57;97953.28;5065951;22;19996;-36
2023/05/26 08:03:18;;;;;;;10.60;4.93;;;18.00;99.90;;;17.92;68.11;97952.31;5026790;28;20098;-38
2023/05/26 08:05:44;;;;;;;14.05;5.95;;;18.00;99.90;;;18.00;65.92;97954.53;5024492;28;20029;-39
2023/05/26 08:08:09;;;;;;;10.45;5.88;;;18.10;99.90;;;18.05;63.11;97956.03;5024341;28;20173;-40
2023/05/26 08:10:36;;;;;;;13.70;6.25;;;18.10;99.90;;;18.06;62.87;97952.38;5027100;28;21561;-40
2023/05/26 08:13:02;;;;;;;13.00;5.93;;;18.20;99.90;;;18.12;64.43;97956.50;5034692;28;20115;-40
2023/05/26 08:15:28;;;;;;;14.63;6.28;;;18.30;99.90;;;18.19;63.59;97957.84;5027438;28;20303;-39
2023/05/26 08:17:53;;;;;;;7.80;4.90;;;18.30;99.90;;;18.36;64.67;97950.66;5032277;28;20496;-39
2023/05/26 08:20:20;;;;;;;10.50;5.22;;;18.40;99.90;;;18.43;64.87;97954.66;5032418;28;20039;-39
2023/05/26 08:22:46;;;;;;;10.05;5.60;;;18.50;99.90;;;18.53;63.32;97952.31;5023154;28;20032;-40
2023/05/26 08:25:12;;;;;;;14.15;6.55;;;18.60;99.90;;;18.63;63.66;97953.50;5031763;28;20509;-40
2023/05/26 08:27:39;;;;;;;11.00;6.40;;;18.70;99.90;;;18.62;59.38;97959.78;5035698;28;20043;-39
2023/05/26 08:30:06;;;;;;;10.73;5.88;;;18.70;99.90;;;18.58;61.66;97955.59;5036494;28;20033;-40
2023/05/26 08:32:32;;;;;;;13.10;7.13;;;18.70;99.90;;;18.57;61.53;97961.88;5034981;28;20527;-40
2023/05/26 08:34:57;;;;;;;11.77;6.63;;;18.70;99.90;;;18.48;62.60;97950.81;5035519;28;20044;-41
2023/05/26 08:37:23;;;;;;;11.98;6.68;;;18.70;99.90;;;18.47;59.72;97953.56;5022868;28;20036;-40
2023/05/26 08:39:49;;;;;;;14.18;5.80;;;18.60;99.90;;;18.53;63.50;97949.66;5030260;28;20033;-40
2023/05/26 08:42:19;;;;;;;9.18;5.15;;;18.60;99.90;;;18.60;62.46;97954.53;5025988;28;20036;-40
2023/05/26 08:44:45;;;;;;;12.70;5.80;;;18.70;99.90;;;18.62;62.28;97957.94;5032454;28;20033;-40
2023/05/26 08:47:12;;;;;;;12.73;6.10;;;18.70;99.90;;;18.70;62.46;97952.16;5028988;28;20417;-42
2023/05/26 08:49:51;;;;;;;13.45;5.22;;;18.80;99.90;;;18.78;63.39;97960.56;5033858;28;20033;-40
2023/05/26 08:52:18;;;;;;;12.32;6.18;;;18.90;99.90;;;18.92;64.66;97951.72;5024601;28;20039;-42
2023/05/26 08:54:45;;;;;;;11.00;4.78;;;19.00;99.90;;;19.05;65.11;97949.13;5022065;28;20531;-40
2023/05/26 08:57:13;;;;;;;12.15;5.85;;;19.10;99.90;;;19.12;61.23;97949.63;5036242;22;20633;-40
2023/05/26 08:59:40;;;;;;;12.85;6.45;;;19.20;99.90;;;19.04;61.43;97947.41;5024979;28;20056;-37
2023/05/26 09:02:06;;;;;;;9.13;5.55;;;19.20;99.90;;;19.07;62.93;97947.22;5026960;28;20032;-38
2023/05/26 09:04:32;;;;;;;11.07;5.40;;;19.20;99.90;;;19.12;64.08;97958.50;5013574;28;20119;-41
2023/05/26 09:06:58;;;;;;;10.00;5.70;;;19.20;99.90;;;19.21;65.69;97955.22;5019483;28;20032;-41
2023/05/26 09:09:24;;;;;;;10.63;5.53;;;19.30;99.90;;;19.24;60.23;97955.03;4998152;28;20519;-40
2023/05/26 09:11:51;;;;;;;14.32;6.05;;;19.30;99.90;;;19.27;64.26;97960.22;4994714;28;21114;-41
2023/05/26 09:14:20;;;;;;;13.23;5.88;;;19.40;99.90;;;19.39;58.24;97963.06;5004013;28;20033;-41
2023/05/26 09:16:46;;;;;;;10.20;5.53;;;19.50;99.90;;;19.42;60.67;97960.19;5003033;28;20037;-40
2023/05/26 09:19:17;;;;;;;9.27;5.22;;;19.50;99.90;;;19.50;59.88;97967.72;5007089;28;20079;-40
2023/05/26 09:21:47;;;;;;;9.50;6.43;;;19.50;99.90;;;19.40;56.78;97959.44;5001705;28;20033;-42
2023/05/26 09:24:19;;;;;;;12.45;5.90;;;19.60;99.70;;;19.26;58.24;97952.28;4991727;28;20116;-39
2023/05/26 09:26:46;;;;;;;;;;;19.50;99.90;;;19.39;60.31;97957.72;5001303;28;20033;-40
2023/05/26 09:29:12;;;;;;;11.73;5.60;;;19.50;99.90;;;19.43;59.72;97959.22;5005679;28;19921;-40
2023/05/26 09:31:46;;;;;;;11.75;5.60;;;19.50;99.90;;;19.54;61.23;97955.84;4990138;28;20554;-40
2023/05/26 09:34:14;;;;;;;15.30;6.03;;;19.60;99.90;;;19.60;61.84;97958.16;4991129;28;20047;-41
2023/05/26 09:36:41;;;;;;;9.77;5.60;;;19.70;99.90;;;19.72;60.31;97956.47;4981723;28;20034;-40
2023/05/26 09:39:13;;;;;;;9.65;5.38;;;19.80;99.90;;;19.75;55.44;97965.19;4984675;28;20029;-39
2023/05/26 09:41:44;;;;;;;8.68;5.28;;;19.90;99.40;;;19.74;57.62;97960.81;4993310;28;21581;-39
2023/05/26 09:44:20;;;;;;;11.93;5.68;;;19.90;99.70;;;19.75;57.25;97956.31;4999395;28;20578;-38
2023/05/26 09:46:46;;;;;;;10.57;5.18;;;19.90;99.70;;;19.82;58.42;97961.16;4995642;28;20501;-39
2023/05/26 09:49:18;;;;;;;10.20;4.85;;;19.90;99.90;;;19.92;59.48;97961.41;4997432;28;21298;-40
2023/05/26 09:51:48;;;;;;;11.55;5.28;;;20.00;99.90;;;19.94;56.17;97956.81;4993067;28;20127;-41
2023/05/26 09:54:14;;;;;;;9.55;4.95;;;20.10;99.70;;;20.00;61.65;97959.06;4993764;28;20812;-38
2023/05/26 09:57:00;;;;;;;11.57;6.45;;;20.10;99.90;;;19.89;55.24;97963.44;4995691;28;20060;-39
2023/05/26 09:59:37;;;;;;;16.48;6.20;;;20.10;98.80;;;19.89;58.65;97958.94;5002841;28;20041;-39
2023/05/26 10:02:25;;;;;;;11.30;6.28;;;20.00;99.30;;;19.91;57.02;97965.03;5006410;28;20091;-39
2023/05/26 10:04:52;;;;;;;8.15;5.05;;;20.00;99.60;;;20.00;58.87;97963.59;5005839;28;20028;-40
2023/05/26 10:07:19;;;;;;;8.82;5.38;;;20.10;99.90;;;20.00;58.69;97955.56;5003604;28;20029;-39
2023/05/26 10:09:53;;;;;;;10.73;5.60;;;20.10;99.90;;;20.11;57.88;97960.19;4999183;28;20068;-41
2023/05/26 10:12:45;;;;;;;13.68;5.95;;;20.20;99.70;;;20.16;60.96;97948.22;4991395;28;20047;-39
2023/05/26 10:15:11;;;;;;;13.32;5.40;;;20.30;99.90;;;20.26;56.88;97955.63;5009619;28;20108;-40
2023/05/26 10:17:39;;;;;;;11.45;5.70;;;20.40;99.30;;;20.33;56.83;97954.25;5006632;28;20075;-39